Time;durP1;ratioP1;P1;durP2;ratioP2;P2;SDS_P1;SDS_P2;PMS_P1;PMS_P2;Temp;Humidity;BMP_temperature;BMP_pressure;BME280_temperature;BME280_humidity;BME280_pressure;Samples;Min_cycle;Max_cycle;Signal;HPM_P1;HPM_P2
2023/01/16 00:01:57;;;;;;;;;;;5.20;99.90;;;;;;5071213;28;20389;-65
2023/01/16 00:04:25;;;;;;;;;;;5.20;99.90;;;;;;5068820;28;19956;-66
2023/01/16 00:06:53;;;;;;;;;;;5.10;99.90;;;;;;5069918;28;19933;-65
2023/01/16 00:09:22;;;;;;;;;;;5.10;99.90;;;;;;5069733;28;19970;-66
2023/01/16 00:11:50;;;;;;;;;;;5.10;99.90;;;;;;5066078;28;19924;-67
2023/01/16 00:14:18;;;;;;;;;;;5.00;99.90;;;;;;5062366;28;19925;-66
2023/01/16 00:16:45;;;;;;;;;;;5.10;99.90;;;;;;5070427;28;20015;-67
2023/01/16 00:19:13;;;;;;;;;;;5.10;99.90;;;;;;5073131;28;19967;-67
2023/01/16 00:21:41;;;;;;;;;;;5.10;99.90;;;;;;5072369;28;20388;-67
2023/01/16 00:24:09;;;;;;;;;;;5.20;99.90;;;;;;5070556;28;20552;-66
2023/01/16 00:26:38;;;;;;;;;;;5.50;99.90;;;;;;5070252;28;19951;-67
2023/01/16 00:29:05;;;;;;;;;;;5.50;99.90;;;;;;5067661;28;19924;-68
2023/01/16 00:31:33;;;;;;;;;;;5.60;99.90;;;;;;5070853;28;19932;-66
2023/01/16 00:34:01;;;;;;;;;;;5.50;99.90;;;;;;5065047;28;19924;-67
2023/01/16 00:36:28;;;;;;;;;;;5.60;99.90;;;;;;5118233;22;19947;-63
2023/01/16 00:38:56;;;;;;;;;;;5.80;99.90;;;;;;5106419;28;19923;-64
2023/01/16 00:41:24;;;;;;;;;;;5.80;99.90;;;;;;5109557;28;19934;-63
2023/01/16 00:43:54;;;;;;;;;;;6.00;99.90;;;;;;5105709;28;19923;-63
2023/01/16 00:46:22;;;;;;;;;;;5.70;99.90;;;;;;5097899;28;19939;-63
2023/01/16 00:48:50;;;;;;;;;;;5.70;99.90;;;;;;5089079;28;19932;-64
2023/01/16 00:51:17;;;;;;;;;;;5.60;99.90;;;;;;5091474;28;19925;-63
2023/01/16 00:53:45;;;;;;;;;;;5.90;99.90;;;;;;5091097;28;19924;-63
2023/01/16 00:56:13;;;;;;;;;;;5.70;99.90;;;;;;5092798;28;19923;-63
2023/01/16 00:58:40;;;;;;;;;;;5.60;99.90;;;;;;5092435;28;20379;-63
2023/01/16 01:01:09;;;;;;;;;;;5.50;99.90;;;;;;5090565;28;19930;-62
2023/01/16 01:03:41;;;;;;;;;;;5.50;99.90;;;;;;5090812;28;19939;-62
2023/01/16 01:06:09;;;;;;;;;;;5.40;99.90;;;;;;5092290;28;20018;-62
2023/01/16 01:08:36;;;;;;;;;;;5.20;99.90;;;;;;5090631;28;19970;-62
2023/01/16 01:11:08;;;;;;;;;;;5.10;99.90;;;;;;5091656;28;20023;-62
2023/01/16 01:13:36;;;;;;;;;;;5.10;99.90;;;;;;5100695;28;19934;-62
2023/01/16 01:16:04;;;;;;;;;;;5.10;99.90;;;;;;5084181;28;19924;-62
2023/01/16 01:18:33;;;;;;;;;;;5.10;99.90;;;;;;5072077;28;20356;-62
2023/01/16 01:21:01;;;;;;;;;;;5.00;99.90;;;;;;5071705;28;20477;-62
2023/01/16 01:23:29;;;;;;;;;;;5.00;99.90;;;;;;5089830;28;19963;-63
2023/01/16 01:25:56;;;;;;;;;;;5.00;99.90;;;;;;5091639;28;20487;-63
2023/01/16 01:28:24;;;;;;;;;;;4.90;99.90;;;;;;5090482;28;19928;-63
2023/01/16 01:30:52;;;;;;;;;;;4.90;99.90;;;;;;5090617;28;19931;-63
2023/01/16 01:33:19;;;;;;;;;;;4.90;99.90;;;;;;5091290;28;19924;-65
2023/01/16 01:35:48;;;;;;;;;;;4.90;99.90;;;;;;5091648;28;20296;-63
2023/01/16 01:38:16;;;;;;;;;;;4.90;99.90;;;;;;5091878;28;19934;-62
2023/01/16 01:40:44;;;;;;;;;;;4.90;99.90;;;;;;5090372;28;20312;-62
2023/01/16 01:43:13;;;;;;;;;;;4.90;99.90;;;;;;5089624;28;19938;-63
2023/01/16 01:45:41;;;;;;;;;;;4.90;99.90;;;;;;5091330;28;19924;-63
2023/01/16 01:48:16;;;;;;;;;;;4.90;99.90;;;;;;5090214;28;19928;-62
2023/01/16 01:50:47;;;;;;;;;;;4.90;99.90;;;;;;5090354;28;20023;-63
2023/01/16 01:53:18;;;;;;;;;;;4.90;99.90;;;;;;5090552;28;19931;-63
2023/01/16 01:55:47;;;;;;;;;;;4.90;99.90;;;;;;5090990;28;19931;-62
2023/01/16 01:58:21;;;;;;;;;;;4.80;99.90;;;;;;5089072;28;20503;-62
2023/01/16 02:00:50;;;;;;;;;;;4.70;99.90;;;;;;5083815;28;19924;-62
2023/01/16 02:03:25;;;;;;;;;;;4.70;99.90;;;;;;5090127;28;19950;-62
2023/01/16 02:05:55;;;;;;;;;;;4.70;99.90;;;;;;5087181;28;20006;-62
2023/01/16 02:08:28;;;;;;;;;;;4.70;99.90;;;;;;5090529;28;21475;-62
2023/01/16 02:10:59;;;;;;;;;;;4.70;99.90;;;;;;5090841;28;20385;-62
2023/01/16 02:13:27;;;;;;;;;;;4.70;99.90;;;;;;5086859;28;19933;-62
2023/01/16 02:21:37;;;;;;;;;;;4.70;99.90;;;;;;5090865;28;19954;-62
2023/01/16 02:24:19;;;;;;;;;;;4.60;99.90;;;;;;5091470;28;19924;-64
2023/01/16 02:27:04;;;;;;;;;;;4.60;99.90;;;;;;5057688;28;19928;-62
2023/01/16 02:29:40;;;;;;;;;;;4.60;99.90;;;;;;5090326;28;19935;-62
2023/01/16 02:32:18;;;;;;;;;;;4.70;99.90;;;;;;5090319;28;19931;-62
2023/01/16 02:34:59;;;;;;;;;;;4.70;99.90;;;;;;5090139;28;19932;-63
2023/01/16 02:37:33;;;;;;;;;;;4.70;99.90;;;;;;5090241;28;19935;-62
2023/01/16 02:40:05;;;;;;;;;;;4.70;99.90;;;;;;5090511;28;20296;-62
2023/01/16 02:42:34;;;;;;;;;;;4.70;99.90;;;;;;5090880;28;19932;-62
2023/01/16 02:45:04;;;;;;;;;;;4.80;99.90;;;;;;5088258;28;19931;-62
2023/01/16 02:47:38;;;;;;;;;;;4.80;99.90;;;;;;5089952;28;20022;-63
2023/01/16 02:50:11;;;;;;;;;;;4.80;99.90;;;;;;5086908;28;19928;-63
2023/01/16 02:52:41;;;;;;;;;;;4.80;99.90;;;;;;5089618;28;20315;-62
2023/01/16 02:55:12;;;;;;;;;;;4.70;99.90;;;;;;5087264;28;19932;-63
2023/01/16 02:57:43;;;;;;;;;;;4.80;99.90;;;;;;5083941;28;20043;-63
2023/01/16 03:00:12;;;;;;;;;;;4.70;99.90;;;;;;5090161;28;19938;-63
2023/01/16 03:02:41;;;;;;;;;;;4.70;99.90;;;;;;5090273;28;19924;-63
2023/01/16 03:05:09;;;;;;;;;;;4.70;99.90;;;;;;5091962;28;19935;-62
2023/01/16 03:07:47;;;;;;;;;;;4.70;99.90;;;;;;5091324;28;19970;-63
2023/01/16 03:10:23;;;;;;;;;;;4.70;99.90;;;;;;5089278;28;19924;-63
2023/01/16 03:12:56;;;;;;;;;;;4.70;99.90;;;;;;5089773;28;20661;-62
2023/01/16 03:15:27;;;;;;;;;;;4.70;99.90;;;;;;5093580;28;19924;-62
2023/01/16 03:18:00;;;;;;;;;;;4.60;99.90;;;;;;5093862;28;19924;-62
2023/01/16 03:20:32;;;;;;;;;;;4.70;99.90;;;;;;5091625;28;19959;-62
2023/01/16 03:23:05;;;;;;;;;;;4.70;99.90;;;;;;5094282;28;19950;-62
2023/01/16 03:25:35;;;;;;;;;;;4.60;99.90;;;;;;5092059;28;19924;-62
2023/01/16 03:28:08;;;;;;;;;;;4.70;99.90;;;;;;5094438;28;20016;-62
2023/01/16 03:30:38;;;;;;;;;;;4.60;99.90;;;;;;5094237;28;19924;-62
2023/01/16 03:33:11;;;;;;;;;;;4.60;99.90;;;;;;5093465;28;19924;-62
2023/01/16 03:35:43;;;;;;;;;;;4.60;99.90;;;;;;5092835;28;19936;-62
2023/01/16 03:38:11;;;;;;;;;;;4.60;99.90;;;;;;5091959;28;19967;-62
2023/01/16 03:40:41;;;;;;;;;;;4.60;99.90;;;;;;5093561;28;20035;-62
2023/01/16 03:43:11;;;;;;;;;;;4.60;99.90;;;;;;5094207;28;20427;-63
2023/01/16 03:45:40;;;;;;;;;;;4.60;99.90;;;;;;5093909;28;20015;-62
2023/01/16 03:48:12;;;;;;;;;;;4.60;99.90;;;;;;5092262;28;19931;-62
2023/01/16 03:50:43;;;;;;;;;;;4.60;99.90;;;;;;5092265;28;20304;-62
2023/01/16 03:53:13;;;;;;;;;;;4.60;99.90;;;;;;5089202;28;20007;-62
2023/01/16 03:55:44;;;;;;;;;;;4.60;99.90;;;;;;5093448;28;20262;-62
2023/01/16 03:58:14;;;;;;;;;;;4.60;99.90;;;;;;5092601;28;19924;-62
2023/01/16 04:00:48;;;;;;;;;;;4.60;99.90;;;;;;5091209;28;19923;-62
2023/01/16 04:03:21;;;;;;;;;;;4.60;99.90;;;;;;5093054;28;19934;-62
2023/01/16 04:05:52;;;;;;;;;;;4.60;99.90;;;;;;5091438;28;20427;-62
2023/01/16 04:08:23;;;;;;;;;;;4.70;99.90;;;;;;5092399;28;20361;-63
2023/01/16 04:10:52;;;;;;;;;;;4.60;99.90;;;;;;5091799;28;20301;-63
2023/01/16 04:13:22;;;;;;;;;;;4.60;99.90;;;;;;5089305;28;19931;-63
2023/01/16 04:15:51;;;;;;;;;;;4.60;99.90;;;;;;5086561;28;20365;-63
2023/01/16 04:18:21;;;;;;;;;;;4.50;99.90;;;;;;5086725;28;19929;-63
2023/01/16 04:20:50;;;;;;;;;;;4.50;99.90;;;;;;5072669;28;20290;-63
2023/01/16 04:23:17;;;;;;;;;;;4.50;99.90;;;;;;5081508;28;19924;-63
2023/01/16 04:25:46;;;;;;;;;;;4.40;99.90;;;;;;5088605;28;19924;-62
2023/01/16 04:28:13;;;;;;;;;;;4.40;99.90;;;;;;5092413;28;20019;-62
2023/01/16 04:30:41;;;;;;;;;;;4.30;99.90;;;;;;5092070;28;20015;-63
2023/01/16 04:33:09;;;;;;;;;;;4.30;99.90;;;;;;5092505;28;19931;-63
2023/01/16 04:35:38;;;;;;;;;;;4.30;99.90;;;;;;5092276;28;20019;-63
2023/01/16 04:38:05;;;;;;;;;;;4.30;99.90;;;;;;5092190;28;19931;-63
2023/01/16 04:40:33;;;;;;;;;;;4.30;99.90;;;;;;5090741;28;19932;-63
2023/01/16 04:43:01;;;;;;;;;;;4.30;99.90;;;;;;5090910;28;19944;-63
2023/01/16 04:45:28;;;;;;;;;;;4.30;99.90;;;;;;5090752;28;20039;-62
2023/01/16 04:47:56;;;;;;;;;;;4.30;99.90;;;;;;5091727;28;20423;-62
2023/01/16 04:50:24;;;;;;;;;;;4.30;99.90;;;;;;5090503;28;20400;-62
2023/01/16 04:52:53;;;;;;;;;;;4.40;99.90;;;;;;5091776;28;19984;-62
2023/01/16 04:55:21;;;;;;;;;;;4.40;99.90;;;;;;5091328;28;19955;-62
2023/01/16 04:57:49;;;;;;;;;;;4.40;99.90;;;;;;5091790;28;19977;-62
2023/01/16 05:00:17;;;;;;;;;;;4.40;99.90;;;;;;5090755;28;20419;-63
2023/01/16 05:02:45;;;;;;;;;;;4.40;99.90;;;;;;5091993;28;20020;-63
2023/01/16 05:05:12;;;;;;;;;;;4.40;99.90;;;;;;5091249;28;19930;-63
2023/01/16 05:07:40;;;;;;;;;;;4.30;99.90;;;;;;5090655;28;19932;-63
2023/01/16 05:10:10;;;;;;;;;;;4.30;99.90;;;;;;5091218;28;19930;-64
2023/01/16 05:12:38;;;;;;;;;;;4.30;99.90;;;;;;5091473;28;19977;-63
2023/01/16 05:15:09;;;;;;;;;;;4.30;99.90;;;;;;5088963;28;19947;-63
2023/01/16 05:17:36;;;;;;;;;;;4.30;99.90;;;;;;5092202;28;19977;-63
2023/01/16 05:20:05;;;;;;;;;;;4.20;99.90;;;;;;5091319;28;20304;-62
2023/01/16 05:22:33;;;;;;;;;;;4.20;99.90;;;;;;5090385;28;19930;-63
2023/01/16 05:25:00;;;;;;;;;;;4.20;99.90;;;;;;5091144;28;19930;-62
2023/01/16 05:27:29;;;;;;;;;;;4.20;99.90;;;;;;5091768;28;19924;-63
2023/01/16 05:29:57;;;;;;;;;;;4.20;99.90;;;;;;5088924;28;19938;-62
2023/01/16 05:32:24;;;;;;;;;;;4.20;99.90;;;;;;5090256;28;19931;-63
2023/01/16 05:34:52;;;;;;;;;;;4.20;99.90;;;;;;5091325;28;20022;-64
2023/01/16 05:37:20;;;;;;;;;;;4.20;99.90;;;;;;5092260;28;19928;-63
2023/01/16 05:39:47;;;;;;;;;;;4.30;99.90;;;;;;5087393;28;19935;-63
2023/01/16 05:42:21;;;;;;;;;;;4.30;99.90;;;;;;5086534;28;20011;-65
2023/01/16 05:44:51;;;;;;;;;;;4.30;99.90;;;;;;5095853;28;20101;-64
2023/01/16 05:47:18;;;;;;;;;;;4.20;99.90;;;;;;5071738;28;20389;-64
2023/01/16 05:49:46;;;;;;;;;;;4.20;99.90;;;;;;5070990;28;19936;-65
2023/01/16 05:52:14;;;;;;;;;;;4.20;99.90;;;;;;5109742;28;19924;-64
2023/01/16 05:54:41;;;;;;;;;;;4.10;99.90;;;;;;5099088;28;20015;-68
2023/01/16 05:57:09;;;;;;;;;;;4.10;99.90;;;;;;5086554;28;19934;-65
2023/01/16 05:59:37;;;;;;;;;;;4.10;99.90;;;;;;5071129;28;19928;-64
2023/01/16 06:02:06;;;;;;;;;;;4.10;99.90;;;;;;5071637;28;19970;-65
2023/01/16 06:04:34;;;;;;;;;;;4.10;99.90;;;;;;5071386;28;19924;-65
2023/01/16 06:07:01;;;;;;;;;;;4.10;99.90;;;;;;5071543;28;20034;-66
2023/01/16 06:09:29;;;;;;;;;;;4.10;99.90;;;;;;5079797;28;19924;-65
2023/01/16 06:11:57;;;;;;;;;;;4.10;99.90;;;;;;5089491;28;19924;-65
2023/01/16 06:14:24;;;;;;;;;;;4.10;99.90;;;;;;5099780;28;19931;-65
2023/01/16 06:16:52;;;;;;;;;;;4.10;99.90;;;;;;5091807;28;19993;-65
2023/01/16 06:19:21;;;;;;;;;;;4.10;99.90;;;;;;5091616;28;19967;-65
2023/01/16 06:21:49;;;;;;;;;;;4.20;99.90;;;;;;5090640;28;19928;-66
2023/01/16 06:24:16;;;;;;;;;;;4.20;99.90;;;;;;5091511;28;19930;-65
2023/01/16 06:26:44;;;;;;;;;;;4.20;99.90;;;;;;5090862;28;20315;-65
2023/01/16 06:29:12;;;;;;;;;;;4.30;99.90;;;;;;5091548;28;19934;-65
2023/01/16 06:31:39;;;;;;;;;;;4.30;99.90;;;;;;5090819;28;19924;-65
2023/01/16 06:34:07;;;;;;;;;;;4.30;99.90;;;;;;5091370;28;20135;-65
2023/01/16 06:36:36;;;;;;;;;;;4.30;99.90;;;;;;5106946;22;19927;-65
2023/01/16 06:39:04;;;;;;;;;;;4.30;99.90;;;;;;5091383;28;20019;-65
2023/01/16 06:41:31;;;;;;;;;;;4.30;99.90;;;;;;5089343;28;20397;-65
2023/01/16 06:43:59;;;;;;;;;;;4.30;99.90;;;;;;5091017;28;20031;-66
2023/01/16 06:46:27;;;;;;;;;;;4.40;99.90;;;;;;5101958;28;19930;-66
2023/01/16 06:48:55;;;;;;;;;;;4.40;99.90;;;;;;5115754;28;19981;-68
2023/01/16 06:51:22;;;;;;;;;;;4.40;99.90;;;;;;5114997;28;19923;-68
2023/01/16 06:53:51;;;;;;;;;;;4.40;99.90;;;;;;5115529;28;19924;-68
2023/01/16 06:56:19;;;;;;;;;;;4.40;99.90;;;;;;5115066;28;19930;-68
2023/01/16 06:58:46;;;;;;;;;;;4.40;99.90;;;;;;5115818;28;19924;-68
2023/01/16 07:01:14;;;;;;;;;;;4.40;99.90;;;;;;5090537;28;19924;-68
2023/01/16 07:03:42;;;;;;;;;;;4.50;99.90;;;;;;5084726;28;19928;-68
2023/01/16 07:06:10;;;;;;;;;;;4.50;99.90;;;;;;5074107;28;19931;-69
2023/01/16 07:08:37;;;;;;;;;;;4.50;99.90;;;;;;5074555;28;19938;-69
2023/01/16 07:11:06;;;;;;;;;;;4.50;99.90;;;;;;5074932;28;19928;-68
2023/01/16 07:13:35;;;;;;;;;;;4.60;99.90;;;;;;5095474;28;19928;-68
2023/01/16 07:24:19;;;;;;;;;;;4.60;99.90;;;;;;5079253;28;20313;-69
2023/01/16 07:26:49;;;;;;;;;;;4.60;99.90;;;;;;5073102;28;20400;-68
2023/01/16 07:29:17;;;;;;;;;;;4.60;99.90;;;;;;5073499;28;20397;-68
2023/01/16 07:31:45;;;;;;;;;;;4.60;99.90;;;;;;5072675;28;20032;-68
2023/01/16 07:34:12;;;;;;;;;;;4.60;99.90;;;;;;5073629;28;20023;-68
2023/01/16 07:36:40;;;;;;;;;;;4.70;99.90;;;;;;5072969;28;20444;-68
2023/01/16 07:39:08;;;;;;;;;;;4.70;99.90;;;;;;5080569;28;20474;-68
2023/01/16 07:41:35;;;;;;;;;;;4.70;99.90;;;;;;5082748;28;20022;-68
2023/01/16 07:44:09;;;;;;;;;;;4.70;99.90;;;;;;5100321;28;19933;-68
2023/01/16 07:46:37;;;;;;;;;;;4.80;99.90;;;;;;5086136;28;19924;-68
2023/01/16 07:49:05;;;;;;;;;;;4.80;99.90;;;;;;5074653;28;19928;-67
2023/01/16 07:51:32;;;;;;;;;;;4.90;99.90;;;;;;5073589;28;19925;-68
2023/01/16 07:54:01;;;;;;;;;;;4.90;99.90;;;;;;5073762;28;19964;-68
2023/01/16 07:56:28;;;;;;;;;;;4.90;99.90;;;;;;5083037;28;20016;-68
2023/01/16 07:58:57;;;;;;;;;;;4.90;99.90;;;;;;5072397;28;20582;-67
2023/01/16 08:01:26;;;;;;;;;;;4.80;99.90;;;;;;5072736;28;19928;-67
2023/01/16 08:03:54;;;;;;;;;;;4.90;99.90;;;;;;5073178;28;19963;-66
2023/01/16 08:06:22;;;;;;;;;;;4.90;99.90;;;;;;5073109;28;20400;-67
2023/01/16 08:08:49;;;;;;;;;;;5.00;99.90;;;;;;5080261;28;19924;-67
2023/01/16 08:14:02;;;;;;;;;;;5.10;99.90;;;;;;5098838;28;20455;-66
2023/01/16 08:16:31;;;;;;;;;;;5.20;99.90;;;;;;5096707;28;19985;-67
2023/01/16 08:18:59;;;;;;;;;;;5.20;99.90;;;;;;5092992;28;19924;-66
2023/01/16 08:21:27;;;;;;;;;;;5.30;99.90;;;;;;5072160;28;19924;-66
2023/01/16 08:23:55;;;;;;;;;;;5.30;99.90;;;;;;5072326;28;19929;-66
2023/01/16 08:26:22;;;;;;;;;;;5.30;99.90;;;;;;5072297;28;20377;-67
2023/01/16 08:28:51;;;;;;;;;;;5.30;99.90;;;;;;5079838;28;20508;-66
2023/01/16 08:31:19;;;;;;;;;;;5.40;99.90;;;;;;5087573;28;19971;-66
2023/01/16 08:33:49;;;;;;;;;;;5.30;99.90;;;;;;5075863;28;19928;-67
2023/01/16 08:36:20;;;;;;;;;;;5.30;99.90;;;;;;5082572;28;20008;-67
2023/01/16 08:38:48;;;;;;;;;;;5.30;99.90;;;;;;5072392;28;19963;-66
2023/01/16 08:52:21;;;;;;;;;;;5.20;99.90;;;;;;5076777;28;19970;-66
2023/01/16 08:54:49;;;;;;;;;;;5.20;99.90;;;;;;5088574;28;20014;-66
2023/01/16 08:57:17;;;;;;;;;;;5.10;99.90;;;;;;5072043;28;20031;-66
2023/01/16 08:59:44;;;;;;;;;;;5.20;99.90;;;;;;5071350;28;19985;-66
2023/01/16 09:02:14;;;;;;;;;;;5.20;99.90;;;;;;5071599;28;19928;-66
2023/01/16 09:04:44;;;;;;;;;;;5.20;99.90;;;;;;5082449;28;19931;-66
2023/01/16 09:07:11;;;;;;;;;;;5.10;99.90;;;;;;5087970;28;19935;-66
2023/01/16 09:09:40;;;;;;;;;;;5.10;99.90;;;;;;5074144;28;20027;-66
2023/01/16 09:14:55;;;;;;;;;;;5.10;99.90;;;;;;5086116;28;20022;-65
2023/01/16 09:17:23;;;;;;;;;;;5.10;99.90;;;;;;5102480;28;19923;-65
2023/01/16 09:19:53;;;;;;;;;;;5.10;99.90;;;;;;5083663;28;19924;-66
2023/01/16 09:22:21;;;;;;;;;;;5.00;99.90;;;;;;5077789;28;19928;-65
2023/01/16 09:24:48;;;;;;;;;;;5.00;99.90;;;;;;5071426;28;19924;-66
2023/01/16 09:27:18;;;;;;;;;;;5.00;99.90;;;;;;5070995;28;19928;-64
2023/01/16 09:29:46;;;;;;;;;;;5.20;99.90;;;;;;5070669;28;20451;-64
2023/01/16 09:32:14;;;;;;;;;;;5.20;99.90;;;;;;5078245;28;19959;-64
2023/01/16 09:34:42;;;;;;;;;;;5.20;99.90;;;;;;5071103;28;20282;-63
2023/01/16 09:37:11;;;;;;;;;;;5.30;99.90;;;;;;5080896;28;19928;-64
2023/01/16 09:39:39;;;;;;;;;;;5.20;99.90;;;;;;5075021;28;19930;-64
2023/01/16 09:45:00;;;;;;;;;;;5.20;99.90;;;;;;5053790;28;20360;-65
2023/01/16 09:47:29;;;;;;;;;;;5.10;99.90;;;;;;5077339;28;20368;-65
2023/01/16 09:49:58;;;;;;;;;;;5.10;99.90;;;;;;5070300;28;19924;-65
2023/01/16 10:00:51;;;;;;;;;;;5.10;99.90;;;;;;5087791;28;20015;-64
2023/01/16 10:03:19;;;;;;;;;;;5.00;99.90;;;;;;5078316;28;19951;-64
2023/01/16 10:05:49;;;;;;;;;;;5.00;99.90;;;;;;5070685;28;19979;-64
2023/01/16 10:08:24;;;;;;;;;;;4.90;99.90;;;;;;5070924;28;19932;-64
2023/01/16 10:10:54;;;;;;;;;;;4.90;99.90;;;;;;5070371;28;19938;-64
2023/01/16 10:13:33;;;;;;;;;;;4.80;99.90;;;;;;5074887;28;19963;-64
2023/01/16 10:16:11;;;;;;;;;;;4.80;99.90;;;;;;5078859;28;20019;-65
2023/01/16 10:18:44;;;;;;;;;;;4.80;99.90;;;;;;5077215;28;19930;-64
2023/01/16 10:21:18;;;;;;;;;;;4.70;99.90;;;;;;5084964;28;19928;-65
2023/01/16 10:23:53;;;;;;;;;;;4.70;99.90;;;;;;5088005;28;19930;-64
2023/01/16 10:26:25;;;;;;;;;;;4.70;99.90;;;;;;5078340;28;19978;-65
2023/01/16 10:28:55;;;;;;;;;;;4.70;99.90;;;;;;5077982;28;20038;-65
2023/01/16 10:31:25;;;;;;;;;;;4.70;99.90;;;;;;5078373;28;19935;-65
2023/01/16 10:33:56;;;;;;;;;;;4.60;99.90;;;;;;5080340;28;20349;-65
2023/01/16 10:36:26;;;;;;;;;;;4.70;99.90;;;;;;5083084;28;19960;-65
2023/01/16 10:38:56;;;;;;;;;;;4.70;99.90;;;;;;5081564;28;20386;-65
2023/01/16 10:49:56;;;;;;;;;;;4.70;99.90;;;;;;5082377;28;20424;-65
2023/01/16 10:52:24;;;;;;;;;;;4.60;99.90;;;;;;5080950;28;19924;-65
2023/01/16 10:54:54;;;;;;;;;;;4.60;99.90;;;;;;5080730;28;20346;-65
2023/01/16 10:57:24;;;;;;;;;;;4.70;99.90;;;;;;5077993;28;19925;-65
2023/01/16 10:59:53;;;;;;;;;;;4.70;99.90;;;;;;5086510;28;19924;-65
2023/01/16 11:02:25;;;;;;;;;;;4.70;99.90;;;;;;5085331;28;20027;-65
2023/01/16 11:04:53;;;;;;;;;;;4.70;99.90;;;;;;5082271;28;19924;-65
2023/01/16 11:07:22;;;;;;;;;;;4.70;99.90;;;;;;5085583;28;19933;-65
2023/01/16 11:09:49;;;;;;;;;;;4.70;99.90;;;;;;5077587;28;20393;-65
2023/01/16 11:20:57;;;;;;;;;;;4.70;99.90;;;;;;5025072;28;19925;-65
2023/01/16 11:23:25;;;;;;;;;;;4.70;99.90;;;;;;5066040;28;20343;-65
2023/01/16 11:25:55;;;;;;;;;;;4.60;99.90;;;;;;5082566;28;20013;-65
2023/01/16 11:28:26;;;;;;;;;;;4.60;99.90;;;;;;5089938;28;19993;-64
2023/01/16 11:30:55;;;;;;;;;;;4.60;99.90;;;;;;5082604;28;19928;-65
2023/01/16 11:33:24;;;;;;;;;;;4.70;99.90;;;;;;5073476;28;19936;-65
2023/01/16 11:35:54;;;;;;;;;;;4.60;99.90;;;;;;5087895;28;19924;-65
2023/01/16 11:38:25;;;;;;;;;;;4.60;99.90;;;;;;5073634;28;19929;-64
2023/01/16 11:40:55;;;;;;;;;;;4.60;99.90;;;;;;5074133;28;20019;-64
2023/01/16 11:46:21;;;;;;;;;;;4.60;99.90;;;;;;5086900;28;20020;-64
2023/01/16 11:48:53;;;;;;;;;;;4.70;99.90;;;;;;5076967;28;19959;-64
2023/01/16 11:51:24;;;;;;;;;;;4.60;99.90;;;;;;5080575;28;20419;-63
2023/01/16 11:53:52;;;;;;;;;;;4.70;99.90;;;;;;5076415;28;19956;-67
2023/01/16 11:56:38;;;;;;;;;;;4.70;99.90;;;;;;5072827;28;20558;-67
2023/01/16 11:59:19;;;;;;;;;;;4.80;99.90;;;;;;5073025;28;19928;-65
2023/01/16 12:05:53;;;;;;;;;;;4.70;99.90;;;;;;5077632;28;20413;-64
2023/01/16 12:07:34;;;;;;;;;;;4.70;99.90;;;;;;5088684;28;19947;-65
2023/01/16 12:10:05;;;;;;;;;;;4.70;99.90;;;;;;5080748;28;20031;-64
2023/01/16 12:15:35;;;;;;;;;;;4.70;99.90;;;;;;5012964;28;20013;-64
2023/01/16 12:18:08;;;;;;;;;;;4.70;99.90;;;;;;5076485;28;19955;-64
2023/01/16 12:20:39;;;;;;;;;;;4.80;99.90;;;;;;5078600;28;19931;-65
2023/01/16 12:23:18;;;;;;;;;;;4.80;99.90;;;;;;5072582;28;20378;-65
2023/01/16 12:25:51;;;;;;;;;;;4.90;99.90;;;;;;5081254;28;19924;-67
2023/01/16 12:28:25;;;;;;;;;;;5.00;99.90;;;;;;5080074;28;19957;-67
2023/01/16 12:31:10;;;;;;;;;;;5.10;99.90;;;;;;5077448;28;19936;-67
2023/01/16 12:33:40;;;;;;;;;;;5.20;99.90;;;;;;5083627;28;19970;-67
2023/01/16 12:36:11;;;;;;;;;;;5.20;99.90;;;;;;5102614;22;20312;-63
2023/01/16 12:38:57;;;;;;;;;;;5.20;99.90;;;;;;5062872;28;19929;-64
2023/01/16 12:44:28;;;;;;;;;;;5.40;99.90;;;;;;5062704;28;19928;-64
2023/01/16 12:47:03;;;;;;;;;;;5.50;99.90;;;;;;5057991;28;19951;-64
2023/01/16 12:49:39;;;;;;;;;;;5.60;99.90;;;;;;5045024;28;20360;-63
2023/01/16 12:52:15;;;;;;;;;;;5.60;99.90;;;;;;5042291;28;19925;-64
2023/01/16 12:54:57;;;;;;;;;;;5.70;99.90;;;;;;5046185;28;19932;-64
2023/01/16 12:57:44;;;;;;;;;;;5.80;99.90;;;;;;5042501;28;19931;-64
2023/01/16 13:00:14;;;;;;;;;;;5.90;99.90;;;;;;5046239;28;19933;-64
2023/01/16 13:02:49;;;;;;;;;;;6.00;99.90;;;;;;5044333;28;20303;-65
2023/01/16 13:05:18;;;;;;;;;;;6.00;99.90;;;;;;5043516;28;19964;-64
2023/01/16 13:07:49;;;;;;;;;;;6.00;99.90;;;;;;5048829;28;20405;-64
2023/01/16 13:15:55;;;;;;;;;;;6.10;99.90;;;;;;5041341;28;19987;-64
2023/01/16 13:18:26;;;;;;;;;;;6.20;99.90;;;;;;5043080;28;19925;-64
2023/01/16 13:20:56;;;;;;;;;;;6.30;99.90;;;;;;5044997;28;19925;-63
2023/01/16 13:23:25;;;;;;;;;;;6.30;99.90;;;;;;5045066;28;19952;-64
2023/01/16 13:25:56;;;;;;;;;;;6.30;99.90;;;;;;5041714;28;19929;-65
2023/01/16 13:28:30;;;;;;;;;;;6.30;99.90;;;;;;5041830;28;20019;-64
2023/01/16 13:31:00;;;;;;;;;;;6.40;99.90;;;;;;5044548;28;19947;-64
2023/01/16 13:33:31;;;;;;;;;;;6.40;99.90;;;;;;5041498;28;19935;-64
2023/01/16 13:36:05;;;;;;;;;;;6.40;99.90;;;;;;5046917;28;20052;-64
2023/01/16 13:38:42;;;;;;;;;;;6.40;99.90;;;;;;5022146;28;19931;-64
2023/01/16 13:41:16;;;;;;;;;;;6.40;99.90;;;;;;5022834;28;20495;-64
2023/01/16 13:46:31;;;;;;;;;;;6.40;99.90;;;;;;5025502;28;20382;-64
2023/01/16 13:49:01;;;;;;;;;;;6.40;99.90;;;;;;5024700;28;19961;-64
2023/01/16 13:51:30;;;;;;;;;;;6.40;99.90;;;;;;5023810;28;20314;-65
2023/01/16 13:53:59;;;;;;;;;;;6.50;99.90;;;;;;5024774;28;19948;-64
2023/01/16 13:56:28;;;;;;;;;;;6.50;99.90;;;;;;5025075;28;20408;-63
2023/01/16 13:58:59;;;;;;;;;;;6.40;99.90;;;;;;5025980;28;20382;-64
2023/01/16 14:01:31;;;;;;;;;;;6.40;99.90;;;;;;5025390;28;19965;-64
2023/01/16 14:04:28;;;;;;;;;;;6.30;99.90;;;;;;5023556;28;19988;-64
2023/01/16 14:09:53;;;;;;;;;;;6.20;99.90;;;;;;5024856;28;19991;-63
2023/01/16 14:12:21;;;;;;;;;;;6.10;99.90;;;;;;5034396;28;19940;-64
2023/01/16 14:17:53;;;;;;;;;;;6.10;99.90;;;;;;5025088;28;19929;-64
2023/01/16 14:20:37;;;;;;;;;;;6.00;99.90;;;;;;5021950;28;20027;-62
2023/01/16 14:25:53;;;;;;;;;;;6.00;99.90;;;;;;5040259;28;20430;-64
2023/01/16 14:28:21;;;;;;;;;;;6.00;99.90;;;;;;5033345;28;19925;-64
2023/01/16 14:30:49;;;;;;;;;;;5.90;99.90;;;;;;5027347;28;19956;-63
2023/01/16 14:33:17;;;;;;;;;;;5.90;99.90;;;;;;5026595;28;19926;-64
2023/01/16 14:35:49;;;;;;;;;;;5.90;99.90;;;;;;5024287;28;20410;-64
2023/01/16 14:38:18;;;;;;;;;;;5.90;99.90;;;;;;5038341;28;20027;-64
2023/01/16 14:55:24;;;;;;;;;;;6.00;99.90;;;;;;5041052;28;19924;-64
2023/01/16 14:57:52;;;;;;;;;;;6.00;99.90;;;;;;5042287;28;20481;-64
2023/01/16 15:00:34;;;;;;;;;;;6.10;99.90;;;;;;5046707;28;19933;-65
2023/01/16 15:03:04;;;;;;;;;;;6.10;99.90;;;;;;5044150;28;19925;-64
2023/01/16 15:08:20;;;;;;;;;;;6.10;99.90;;;;;;5044699;28;19965;-64
2023/01/16 15:10:50;;;;;;;;;;;6.10;99.90;;;;;;5046370;28;19932;-64
2023/01/16 15:13:21;;;;;;;;;;;6.20;99.90;;;;;;5046108;28;19929;-63
2023/01/16 15:15:51;;;;;;;;;;;6.10;99.90;;;;;;5045742;28;19929;-64
2023/01/16 15:23:58;;;;;;;;;;;6.10;99.90;;;;;;5048802;28;19925;-64
2023/01/16 15:26:33;;;;;;;;;;;6.10;99.90;;;;;;5044483;28;19929;-64
2023/01/16 15:29:06;;;;;;;;;;;6.10;99.90;;;;;;5043962;28;19932;-64
2023/01/16 15:31:38;;;;;;;0.60;0.40;;;5.90;99.90;;;;;;5045208;28;20058;-63
2023/01/16 15:34:06;;;;;;;;;;;5.80;99.90;;;;;;5051866;28;19924;-64
2023/01/16 15:36:38;;;;;;;;;;;5.70;99.90;;;;;;5046095;28;19925;-64
2023/01/16 15:39:22;;;;;;;0.50;0.40;;;5.50;99.90;;;;;;5047645;28;20389;-64
2023/01/16 15:47:48;;;;;;;;;;;5.30;99.90;;;;;;5048091;28;20338;-63
2023/01/16 15:50:21;;;;;;;;;;;5.30;99.90;;;;;;5046227;28;19939;-64
2023/01/16 15:52:48;;;;;;;;;;;5.30;99.90;;;;;;5043583;28;19987;-64
2023/01/16 15:55:19;;;;;;;;;;;5.30;99.90;;;;;;5047051;28;20381;-63
2023/01/16 15:57:48;;;;;;;;;;;5.30;99.90;;;;;;5048300;28;19924;-64
2023/01/16 16:00:27;;;;;;;;;;;5.30;99.90;;;;;;5039768;28;20416;-65
2023/01/16 16:02:58;;;;;;;;;;;5.30;99.90;;;;;;5045276;28;20019;-64
2023/01/16 16:05:28;;;;;;;0.60;0.40;;;5.30;99.90;;;;;;5043766;28;19957;-64
2023/01/16 16:07:56;;;;;;;0.55;0.40;;;5.40;99.90;;;;;;5047031;28;20255;-64
2023/01/16 16:13:16;;;;;;;0.50;0.38;;;5.40;99.90;;;;;;5054281;28;20210;-65
2023/01/16 16:18:57;;;;;;;;;;;5.30;99.90;;;;;;5040359;28;20380;-64
2023/01/16 16:21:27;;;;;;;0.50;0.40;;;5.40;99.90;;;;;;5051447;28;20195;-63
2023/01/16 16:23:59;;;;;;;0.60;0.40;;;5.40;99.90;;;;;;5051748;28;20227;-64
2023/01/16 16:26:28;;;;;;;0.55;0.40;;;5.40;99.90;;;;;;5051774;28;20606;-64
2023/01/16 16:28:57;;;;;;;0.60;0.40;;;5.30;99.90;;;;;;5051618;28;20295;-64
2023/01/16 16:31:30;;;;;;;0.50;0.40;;;5.40;99.90;;;;;;5051142;28;20208;-63
2023/01/16 16:34:01;;;;;;;0.60;0.40;;;5.30;99.90;;;;;;5051577;28;20283;-63
2023/01/16 16:36:30;;;;;;;0.50;0.40;;;5.30;99.90;;;;;;5051365;28;20270;-64
2023/01/16 16:38:58;;;;;;;0.50;0.30;;;5.20;99.90;;;;;;5051630;28;20247;-63
2023/01/16 16:44:41;;;;;;;1.02;0.50;;;5.20;99.90;;;;;;5035100;28;20201;-64
2023/01/16 16:47:25;;;;;;;0.70;0.40;;;5.20;99.90;;;;;;5045011;28;20646;-63
2023/01/16 16:49:53;;;;;;;0.60;0.40;;;5.10;99.90;;;;;;5047976;28;20227;-62